Time;durP1;ratioP1;P1;durP2;ratioP2;P2;SDS_P1;SDS_P2;PMS_P1;PMS_P2;Temp;Humidity;BMP_temperature;BMP_pressure;BME280_temperature;BME280_humidity;BME280_pressure;Samples;Min_cycle;Max_cycle;Signal;HPM_P1;HPM_P2
2023/06/30 00:00:58;;;;;;;;;;;16.00;99.90;;;;;;5046224;28;19980;-43
2023/06/30 00:03:26;;;;;;;;;;;16.00;99.90;;;;;;5013290;28;19999;-43
2023/06/30 00:05:52;;;;;;;;;;;15.90;99.90;;;;;;5025197;28;19979;-43
2023/06/30 00:08:19;;;;;;;;;;;15.90;99.90;;;;;;5029637;28;19925;-44
2023/06/30 00:10:46;;;;;;;;;;;15.90;99.90;;;;;;5032139;28;19929;-44
2023/06/30 00:13:12;;;;;;;;;;;15.80;99.90;;;;;;5013833;28;20384;-44
2023/06/30 00:15:39;;;;;;;;;;;15.70;99.90;;;;;;5012800;28;19956;-43
2023/06/30 00:18:06;;;;;;;;;;;15.70;99.90;;;;;;5031236;28;19932;-44
2023/06/30 00:20:34;;;;;;;;;;;15.70;99.90;;;;;;5012609;28;20385;-43
2023/06/30 00:23:01;;;;;;;;;;;15.70;99.90;;;;;;5013720;28;19925;-44
2023/06/30 00:25:28;;;;;;;;;;;15.70;99.90;;;;;;5031074;28;19929;-43
2023/06/30 00:27:54;;;;;;;;;;;15.60;99.90;;;;;;5012261;28;19925;-44
2023/06/30 00:30:21;;;;;;;;;;;15.60;99.90;;;;;;5030830;28;20423;-43
2023/06/30 00:32:47;;;;;;;;;;;15.60;99.90;;;;;;5013928;28;19963;-44
2023/06/30 00:35:14;;;;;;;;;;;15.50;99.90;;;;;;5028735;28;19929;-44
2023/06/30 00:37:42;;;;;;;;;;;15.50;99.90;;;;;;5012469;28;19933;-43
2023/06/30 00:40:09;;;;;;;;;;;15.50;99.90;;;;;;5013928;28;19929;-44
2023/06/30 00:42:36;;;;;;;;;;;15.50;99.90;;;;;;5003472;28;19932;-44
2023/06/30 00:45:03;;;;;;;;;;;15.40;99.90;;;;;;5009640;28;20353;-43
2023/06/30 00:47:30;;;;;;;;;;;15.40;99.90;;;;;;5015421;28;20385;-43
2023/06/30 00:49:56;;;;;;;;;;;15.40;99.90;;;;;;5034818;28;19925;-44
2023/06/30 00:52:23;;;;;;;;;;;15.40;99.90;;;;;;5031023;28;19990;-44
2023/06/30 00:54:51;;;;;;;;;;;15.30;99.90;;;;;;5033361;28;19933;-44
2023/06/30 00:57:18;;;;;;;;;;;15.30;99.90;;;;;;5016117;28;19937;-43
2023/06/30 00:59:45;;;;;;;;;;;15.30;99.90;;;;;;5016631;28;19956;-43
2023/06/30 01:02:13;;;;;;;;;;;15.30;99.90;;;;;;5017240;28;19945;-44
2023/06/30 01:04:44;;;;;;;;;;;15.20;99.90;;;;;;5034363;28;19971;-43
2023/06/30 01:07:12;;;;;;;;;;;15.20;99.90;;;;;;5034766;28;19933;-43
2023/06/30 01:09:39;;;;;;;;;;;15.20;99.90;;;;;;5033905;28;19952;-43
2023/06/30 01:12:08;;;;;;;;;;;15.20;99.90;;;;;;5033863;28;20427;-44
2023/06/30 01:14:34;;;;;;;;;;;15.20;99.90;;;;;;5034454;28;19929;-42
2023/06/30 01:17:01;;;;;;;;;;;15.10;99.90;;;;;;5034733;28;19925;-43
2023/06/30 01:19:30;;;;;;;;;;;15.10;99.90;;;;;;5034653;28;19947;-43
2023/06/30 01:21:58;;;;;;;;;;;15.10;99.90;;;;;;5033816;28;19929;-43
2023/06/30 01:24:25;;;;;;;;;;;15.00;99.90;;;;;;5034009;28;20388;-44
2023/06/30 01:26:52;;;;;;;;;;;15.00;99.90;;;;;;5034281;28;19967;-43
2023/06/30 01:29:20;;;;;;;;;;;15.00;99.90;;;;;;5021520;28;19929;-44
2023/06/30 01:31:47;;;;;;;;;;;15.00;99.90;;;;;;5033141;28;19931;-43
2023/06/30 01:34:14;;;;;;;;;;;14.90;99.90;;;;;;5049415;28;19925;-43
2023/06/30 01:36:40;;;;;;;;;;;14.90;99.90;;;;;;5015714;28;19929;-43
2023/06/30 01:39:07;;;;;;;;;;;14.90;99.90;;;;;;5033611;28;19929;-43
2023/06/30 01:41:34;;;;;;;;;;;14.80;99.90;;;;;;5033386;28;19929;-43
2023/06/30 01:44:00;;;;;;;;;;;14.80;99.90;;;;;;5032759;28;19929;-43
2023/06/30 01:46:28;;;;;;;;;;;14.80;99.90;;;;;;5032975;28;19979;-43
2023/06/30 01:48:55;;;;;;;;;;;14.80;99.90;;;;;;5049408;28;19934;-43
2023/06/30 01:51:22;;;;;;;;;;;14.80;99.90;;;;;;5033064;28;19968;-44
2023/06/30 01:53:48;;;;;;;;;;;14.80;99.90;;;;;;5015188;28;19980;-43
2023/06/30 01:56:15;;;;;;;;;;;14.70;99.90;;;;;;5048806;28;19929;-43
2023/06/30 01:58:42;;;;;;;;;;;14.70;99.90;;;;;;5012744;28;19937;-43
2023/06/30 02:01:09;;;;;;;;;;;14.70;99.90;;;;;;5033510;28;19931;-43
2023/06/30 02:03:37;;;;;;;;;;;14.70;99.90;;;;;;5021306;28;19964;-43
2023/06/30 02:06:04;;;;;;;;;;;14.60;99.90;;;;;;5016233;28;19937;-43
2023/06/30 02:08:30;;;;;;;;;;;14.60;99.90;;;;;;5015808;28;19929;-43
2023/06/30 02:10:57;;;;;;;;;;;14.60;99.90;;;;;;5049181;28;19925;-43
2023/06/30 02:13:23;;;;;;;;;;;14.50;99.90;;;;;;5015258;28;19925;-43
2023/06/30 02:15:50;;;;;;;;;;;14.50;99.90;;;;;;5013141;28;19975;-43
2023/06/30 02:18:17;;;;;;;;;;;14.50;99.90;;;;;;5013823;28;20320;-42
2023/06/30 02:20:45;;;;;;;;;;;14.40;99.90;;;;;;5016302;28;20451;-44
2023/06/30 02:23:11;;;;;;;;;;;14.40;99.90;;;;;;5022998;28;19926;-43
2023/06/30 02:25:38;;;;;;;;;;;14.40;99.90;;;;;;5023466;28;19960;-43
2023/06/30 02:28:05;;;;;;;;;;;14.40;99.90;;;;;;5033057;28;20347;-44
2023/06/30 02:30:32;;;;;;;;;;;14.30;99.90;;;;;;5016120;28;19967;-43
2023/06/30 02:32:58;;;;;;;;;;;14.30;99.90;;;;;;5016092;28;19932;-43
2023/06/30 02:35:25;;;;;;;;;;;14.30;99.90;;;;;;5046883;28;20397;-43
2023/06/30 02:37:53;;;;;;;;;;;14.20;99.90;;;;;;5025441;28;19925;-42
2023/06/30 02:40:20;;;;;;;;;;;14.20;99.90;;;;;;5032717;28;19958;-44
2023/06/30 02:42:47;;;;;;;;;;;14.20;99.90;;;;;;5005182;28;19929;-44
2023/06/30 02:45:13;;;;;;;;;;;14.10;99.90;;;;;;5033424;28;19932;-44
2023/06/30 02:47:40;;;;;;;;;;;14.10;99.90;;;;;;5048188;28;19937;-42
2023/06/30 02:50:07;;;;;;;;;;;14.10;99.90;;;;;;5047320;28;19925;-43
2023/06/30 02:52:34;;;;;;;;;;;14.00;99.90;;;;;;5028431;28;19932;-44
2023/06/30 02:55:02;;;;;;;;;;;14.00;99.90;;;;;;5013714;28;20058;-43
2023/06/30 02:57:29;;;;;;;;;;;14.00;99.90;;;;;;5032022;28;19929;-44
2023/06/30 02:59:55;;;;;;;;;;;13.90;99.90;;;;;;5014068;28;19925;-44
2023/06/30 03:02:22;;;;;;;;;;;13.90;99.90;;;;;;5017367;28;20389;-43
2023/06/30 03:04:49;;;;;;;;;;;13.90;99.90;;;;;;5033367;28;19929;-43
2023/06/30 03:07:16;;;;;;;;;;;13.80;99.90;;;;;;5014956;28;19972;-43
2023/06/30 03:09:43;;;;;;;;;;;13.80;99.90;;;;;;5014015;28;19925;-43
2023/06/30 03:12:11;;;;;;;;;;;13.80;99.90;;;;;;5029124;28;19929;-43
2023/06/30 03:14:38;;;;;;;;;;;13.80;99.90;;;;;;5029371;28;19925;-43
2023/06/30 03:17:04;;;;;;;;;;;13.70;99.90;;;;;;5032277;28;19929;-44
2023/06/30 03:19:31;;;;;;;;;;;13.70;99.90;;;;;;5031848;28;19955;-44
2023/06/30 03:21:58;;;;;;;;;;;13.70;99.90;;;;;;5032842;28;20388;-43
2023/06/30 03:24:25;;;;;;;;;;;13.70;99.90;;;;;;5013939;28;19947;-43
2023/06/30 03:26:52;;;;;;;;;;;13.60;99.90;;;;;;5032370;28;19952;-44
2023/06/30 03:29:20;;;;;;;;;;;13.60;99.90;;;;;;5032793;28;19925;-42
2023/06/30 03:31:46;;;;;;;;;;;13.60;99.90;;;;;;5026880;28;19971;-44
2023/06/30 03:34:13;;;;;;;;;;;13.60;99.90;;;;;;5031489;28;19995;-43
2023/06/30 03:36:40;;;;;;;;;;;13.50;99.90;;;;;;5027669;28;19979;-44
2023/06/30 03:39:06;;;;;;;;;;;13.50;99.90;;;;;;5024809;28;19929;-44
2023/06/30 03:41:33;;;;;;;;;;;13.50;99.90;;;;;;5031337;28;19995;-43
2023/06/30 03:44:00;;;;;;;;;;;13.50;99.90;;;;;;5009608;28;20331;-43
2023/06/30 03:46:28;;;;;;;;;;;13.50;99.90;;;;;;5030650;28;19924;-43
2023/06/30 03:48:54;;;;;;;;;;;13.40;99.90;;;;;;5014289;28;19968;-43
2023/06/30 03:51:21;;;;;;;;;;;13.40;99.90;;;;;;5026179;28;20392;-43
2023/06/30 03:53:48;;;;;;;;;;;13.40;99.90;;;;;;5030279;28;19925;-43
2023/06/30 03:56:14;;;;;;;;;;;13.40;99.90;;;;;;5031698;28;20404;-43
2023/06/30 03:58:41;;;;;;;;;;;13.40;99.90;;;;;;5031059;28;19929;-43
2023/06/30 04:01:08;;;;;;;;;;;13.30;99.90;;;;;;5007341;28;19929;-42
2023/06/30 04:03:37;;;;;;;;;;;13.30;99.90;;;;;;5018713;28;19929;-44
2023/06/30 04:06:04;;;;;;;;;;;13.30;99.90;;;;;;5007293;28;19976;-43
2023/06/30 04:08:31;;;;;;;;;;;13.30;99.90;;;;;;5026494;28;19925;-43
2023/06/30 04:10:58;;;;;;;;;;;13.30;99.90;;;;;;5031585;28;19925;-44
2023/06/30 04:13:24;;;;;;;;;;;13.30;99.90;;;;;;5003188;28;20317;-44
2023/06/30 04:15:51;;;;;;;;;;;13.30;99.90;;;;;;5010420;28;19937;-44
2023/06/30 04:18:18;;;;;;;;;;;13.30;99.90;;;;;;5012708;28;20300;-44
2023/06/30 04:20:47;;;;;;;;;;;13.30;99.90;;;;;;5012833;28;19968;-43
2023/06/30 04:23:13;;;;;;;;;;;13.30;99.90;;;;;;5021205;28;20293;-43
2023/06/30 04:25:40;;;;;;;;;;;13.20;99.90;;;;;;5025567;28;19933;-43
2023/06/30 04:28:07;;;;;;;;;;;13.30;99.90;;;;;;5009528;28;20309;-43
2023/06/30 04:30:33;;;;;;;;;;;13.30;99.90;;;;;;5018462;28;19979;-45
2023/06/30 04:33:00;;;;;;;;;;;13.20;99.90;;;;;;5009804;28;20397;-44
2023/06/30 04:35:27;;;;;;;;;;;13.30;99.90;;;;;;5030086;28;19988;-44
2023/06/30 04:37:55;;;;;;;;;;;13.30;99.90;;;;;;5014410;28;19936;-45
2023/06/30 04:40:22;;;;;;;;;;;13.20;99.90;;;;;;5012825;28;19933;-44
2023/06/30 04:42:48;;;;;;;;;;;13.30;99.90;;;;;;5030270;28;19979;-44
2023/06/30 04:45:15;;;;;;;;;;;13.30;99.90;;;;;;5013520;28;19929;-43
2023/06/30 04:47:42;;;;;;;;;;;13.30;99.90;;;;;;5014326;28;20275;-44
2023/06/30 04:50:09;;;;;;;;;;;13.30;99.90;;;;;;5031074;28;19925;-43
2023/06/30 04:52:35;;;;;;;;;;;13.30;99.90;;;;;;5023881;28;19925;-43
2023/06/30 04:55:04;;;;;;;;;;;13.40;99.90;;;;;;5017264;28;19975;-43
2023/06/30 04:57:30;;;;;;;;;;;13.40;99.90;;;;;;5030665;28;19929;-43
2023/06/30 04:59:57;;;;;;;;;;;13.40;99.90;;;;;;5031578;28;19970;-43
2023/06/30 05:02:24;;;;;;;;;;;13.40;99.90;;;;;;5012357;28;19979;-43
2023/06/30 05:04:51;;;;;;;;;;;13.40;99.90;;;;;;5013096;28;19932;-43
2023/06/30 05:07:17;;;;;;;;;;;13.40;99.90;;;;;;5013596;28;20600;-43
2023/06/30 05:09:44;;;;;;;;;;;13.50;99.90;;;;;;5008454;28;20328;-43
2023/06/30 05:12:12;;;;;;;;;;;13.60;99.90;;;;;;5009838;28;20274;-43
2023/06/30 05:14:39;;;;;;;;;;;13.60;99.90;;;;;;5029973;28;19931;-42
2023/06/30 05:17:06;;;;;;;;;;;13.60;99.90;;;;;;5029185;28;19932;-42
2023/06/30 05:19:32;;;;;;;;;;;13.70;99.90;;;;;;5023919;28;19925;-42
2023/06/30 05:21:59;;;;;;;;;;;13.70;99.90;;;;;;5015568;28;19925;-44
2023/06/30 05:24:26;;;;;;;;;;;13.80;99.90;;;;;;5012915;28;19929;-42
2023/06/30 05:26:56;;;;;;;;;;;13.80;99.90;;;;;;5012672;28;20419;-43
2023/06/30 05:29:24;;;;;;;;;;;13.90;99.90;;;;;;5028769;28;19929;-43
2023/06/30 05:31:51;;;;;;;;;;;14.00;99.90;;;;;;5028342;28;20415;-43
2023/06/30 05:34:17;;;;;;;;;;;14.00;99.90;;;;;;5015508;28;19972;-43
2023/06/30 05:36:44;;;;;;;;;;;14.20;99.90;;;;;;5033053;28;19925;-44
2023/06/30 05:39:11;;;;;;;;;;;14.30;99.90;;;;;;5031502;28;19926;-44
2023/06/30 05:41:38;;;;;;;;;;;14.40;99.90;;;;;;5014219;28;19925;-44
2023/06/30 05:44:06;;;;;;;;;;;14.50;99.90;;;;;;5028890;28;20332;-44
2023/06/30 05:46:35;;;;;;;;;;;14.60;99.90;;;;;;5033097;28;20450;-44
2023/06/30 05:49:05;;;;;;;;;;;14.80;99.90;;;;;;5032988;28;19947;-44
2023/06/30 05:51:32;;;;;;;;;;;15.00;99.90;;;;;;5028052;28;20361;-44
2023/06/30 05:53:58;;;;;;;;;;;15.10;99.90;;;;;;5029808;28;19933;-44
2023/06/30 05:56:25;;;;;;;;;;;15.30;99.90;;;;;;5012619;28;20013;-43
2023/06/30 05:58:52;;;;;;;;;;;15.50;99.90;;;;;;5030923;28;19979;-43
2023/06/30 06:01:18;;;;;;;;;;;15.70;99.90;;;;;;5028428;28;20022;-44
2023/06/30 06:03:46;;;;;;;;;;;15.80;99.90;;;;;;5012224;28;19966;-43
2023/06/30 06:06:13;;;;;;;;;;;15.90;99.90;;;;;;5045916;28;20010;-43
2023/06/30 06:08:40;;;;;;;;;;;16.00;99.90;;;;;;5032064;28;20034;-44
2023/06/30 06:11:07;;;;;;;;;;;16.20;99.90;;;;;;5030541;28;20009;-45
2023/06/30 06:13:34;;;;;;;;;;;16.20;99.90;;;;;;5030776;28;20415;-44
2023/06/30 06:16:00;;;;;;;;;;;16.30;99.90;;;;;;5029243;28;19969;-45
2023/06/30 06:18:27;;;;;;;;;;;16.40;99.90;;;;;;5031956;28;19932;-44
2023/06/30 06:20:55;;;;;;;;;;;16.50;99.90;;;;;;5015193;28;20015;-44
2023/06/30 06:23:22;;;;;;;;;;;16.70;99.90;;;;;;5014636;28;20016;-45
2023/06/30 06:25:49;;;;;;;;;;;16.80;99.90;;;;;;5013927;28;19964;-44
2023/06/30 06:28:15;;;;;;;;;;;16.90;99.90;;;;;;5031939;28;19979;-43
2023/06/30 06:30:42;;;;;;;;;;;17.10;99.90;;;;;;5028194;28;19979;-45
2023/06/30 06:33:09;;;;;;;;;;;17.20;99.90;;;;;;5021746;28;19999;-44
2023/06/30 06:35:35;;;;;;;;;;;17.30;99.90;;;;;;5030114;28;19979;-43
2023/06/30 06:38:03;;;;;;;;;;;17.50;99.90;;;;;;5029329;28;20369;-44
2023/06/30 06:40:30;;;;;;;;;;;17.60;99.90;;;;;;5027504;28;20011;-45
2023/06/30 06:42:57;;;;;;;;;;;17.80;99.90;;;;;;5005994;28;19933;-44
2023/06/30 06:45:24;;;;;;;;;;;17.90;99.90;;;;;;5029840;28;19929;-45
2023/06/30 06:48:09;;;;;;;;;;;18.00;99.90;;;;;;5012701;28;20400;-45
2023/06/30 06:50:36;;;;;;;;;;;18.10;99.90;;;;;;5028853;28;20020;-45
2023/06/30 06:53:04;;;;;;;;;;;18.30;99.90;;;;;;5010294;28;19991;-45
2023/06/30 06:55:30;;;;;;;;;;;18.40;99.90;;;;;;5011376;28;19925;-45
2023/06/30 06:57:57;;;;;;;;;;;18.50;99.90;;;;;;5030023;28;20430;-44
2023/06/30 07:00:24;;;;;;;;;;;18.60;99.90;;;;;;5029254;28;19929;-44
2023/06/30 07:02:51;;;;;;;;;;;18.80;99.90;;;;;;5010301;28;19933;-45
2023/06/30 07:05:18;;;;;;;;;;;18.80;99.90;;;;;;5013237;28;20459;-43
2023/06/30 07:07:44;;;;;;;;;;;19.00;99.90;;;;;;5026209;28;19937;-43
2023/06/30 07:10:12;;;;;;;;;;;19.00;99.90;;;;;;5016620;28;20421;-44
2023/06/30 07:12:39;;;;;;;;;;;19.10;99.90;;;;;;5013233;28;19925;-46
2023/06/30 07:15:06;;;;;;;;;;;19.20;99.90;;;;;;5042168;28;19925;-44
2023/06/30 07:17:33;;;;;;;;;;;19.40;99.90;;;;;;5022482;28;19979;-44
2023/06/30 07:20:00;;;;;;;;;;;19.40;99.90;;;;;;5026381;28;19933;-44
2023/06/30 07:22:26;;;;;;;;;;;19.50;99.90;;;;;;5012811;28;20002;-43
2023/06/30 07:24:53;;;;;;;;;;;19.70;99.90;;;;;;5012220;28;20385;-44
2023/06/30 07:27:21;;;;;;;;;;;19.80;99.90;;;;;;5030087;28;20036;-44
2023/06/30 07:29:49;;;;;;;;;;;19.80;99.90;;;;;;5030737;28;20532;-44
2023/06/30 07:32:16;;;;;;;;;;;19.80;99.90;;;;;;5007842;28;19983;-45
2023/06/30 07:34:42;;;;;;;;;;;20.00;99.90;;;;;;5012165;28;19925;-45
2023/06/30 07:37:09;;;;;;;;;;;20.20;99.90;;;;;;5007743;28;19976;-45
2023/06/30 07:39:36;;;;;;;;;;;20.40;99.90;;;;;;5031425;28;19925;-45
2023/06/30 07:42:06;;;;;;;;;;;20.60;99.90;;;;;;5028336;28;19937;-45
2023/06/30 07:44:35;;;;;;;;;;;20.70;99.90;;;;;;5012153;28;21697;-43
2023/06/30 07:47:02;;;;;;;;;;;20.80;99.90;;;;;;5041282;28;19929;-44
2023/06/30 07:49:29;;;;;;;;;;;20.80;99.90;;;;;;5031339;28;19933;-44
2023/06/30 07:51:55;;;;;;;;;;;20.80;99.90;;;;;;5036007;28;20289;-44
2023/06/30 07:54:22;;;;;;;;;;;20.70;99.90;;;;;;5045617;28;20015;-45
2023/06/30 07:56:49;;;;;;;;;;;20.70;99.90;;;;;;5029131;28;20355;-45
2023/06/30 07:59:15;;;;;;;;;;;20.60;99.90;;;;;;5048761;28;20023;-45
2023/06/30 08:01:43;;;;;;;;;;;20.60;99.90;;;;;;5029264;28;19925;-44
2023/06/30 08:04:11;;;;;;;;;;;20.60;99.90;;;;;;5030068;28;19964;-45
2023/06/30 08:06:37;;;;;;;;;;;20.60;99.90;;;;;;5012642;28;19924;-43
2023/06/30 08:09:04;;;;;;;;;;;20.60;99.90;;;;;;5011587;28;20398;-45
2023/06/30 08:11:31;;;;;;;;;;;20.70;99.90;;;;;;5030753;28;19929;-45
2023/06/30 08:13:59;;;;;;;;;;;20.90;99.90;;;;;;5030116;28;19925;-45
2023/06/30 08:16:26;;;;;;;;;;;21.00;99.70;;;;;;5011149;28;19929;-46
2023/06/30 08:18:54;;;;;;;;;;;21.20;99.90;;;;;;5021374;28;19984;-44
2023/06/30 08:21:21;;;;;;;;;;;21.30;99.90;;;;;;4996597;28;19929;-44
2023/06/30 08:23:47;;;;;;;;;;;21.30;99.90;;;;;;5027889;28;19973;-45
2023/06/30 08:26:14;;;;;;;;;;;21.30;99.30;;;;;;5029714;28;20451;-45
2023/06/30 08:28:41;;;;;;;;;;;21.40;99.80;;;;;;5029231;28;19952;-45
2023/06/30 08:31:07;;;;;;;;;;;21.50;99.20;;;;;;5022283;28;20415;-45
2023/06/30 08:33:34;;;;;;;;;;;21.60;99.50;;;;;;5028627;28;19932;-45
2023/06/30 08:36:02;;;;;;;;;;;21.80;99.10;;;;;;5027981;28;19926;-46
2023/06/30 08:38:29;;;;;;;;;;;21.90;98.60;;;;;;5026979;28;20336;-44
2023/06/30 08:40:55;;;;;;;;;;;22.10;98.50;;;;;;5010706;28;19937;-45
2023/06/30 08:43:22;;;;;;;;;;;22.20;99.00;;;;;;5013585;28;19929;-46
2023/06/30 08:45:49;;;;;;;;;;;22.10;98.00;;;;;;5016866;28;19956;-46
2023/06/30 08:48:16;;;;;;;;;;;21.90;98.20;;;;;;5030115;28;19975;-46
2023/06/30 08:50:43;;;;;;;;;;;21.90;98.80;;;;;;5030249;28;19964;-43
2023/06/30 08:53:11;;;;;;;;;;;22.00;98.60;;;;;;5012960;28;19929;-44
2023/06/30 08:55:38;;;;;;;;;;;22.20;98.90;;;;;;5028642;28;19936;-46
2023/06/30 08:58:05;;;;;;;;;;;22.50;97.80;;;;;;5013093;28;19975;-46
2023/06/30 09:00:31;;;;;;;;;;;22.60;97.60;;;;;;5012807;28;19968;-44
2023/06/30 09:02:58;;;;;;;;;;;22.80;97.10;;;;;;5011925;28;19932;-45
2023/06/30 09:05:25;;;;;;;;;;;22.80;96.20;;;;;;5029432;28;19925;-45
2023/06/30 09:07:53;;;;;;;;;;;22.90;96.20;;;;;;5030082;28;19969;-45
2023/06/30 09:10:21;;;;;;;;;;;22.80;94.50;;;;;;5034147;28;19929;-44
2023/06/30 09:12:48;;;;;;;;;;;22.80;96.30;;;;;;5034055;28;20279;-45
2023/06/30 09:15:15;;;;;;;;;;;22.90;96.00;;;;;;5032628;28;19926;-44
2023/06/30 09:17:42;;;;;;;;;;;23.10;95.80;;;;;;5016498;28;19925;-45
2023/06/30 09:20:09;;;;;;;;;;;23.30;95.40;;;;;;5033655;28;19979;-44
2023/06/30 09:22:36;;;;;;;;;;;23.40;95.70;;;;;;5016335;28;19925;-44
2023/06/30 09:25:03;;;;;;;;;;;23.60;95.40;;;;;;5032329;28;19956;-45
2023/06/30 09:27:33;;;;;;;;;;;23.60;93.70;;;;;;5034071;28;20329;-44
2023/06/30 09:30:00;;;;;;;;;;;23.40;94.50;;;;;;5033577;28;20409;-45
2023/06/30 09:32:29;;;;;;;;;;;23.20;94.30;;;;;;5032931;28;19960;-45
2023/06/30 09:34:56;;;;;;;;;;;23.20;94.10;;;;;;5033610;28;20001;-44
2023/06/30 09:37:22;;;;;;;;;;;23.30;94.60;;;;;;5015074;28;19931;-44
2023/06/30 09:39:54;;;;;;;;;;;23.50;94.80;;;;;;5032876;28;19925;-46
2023/06/30 09:42:21;;;;;;;;;;;23.70;93.80;;;;;;5015149;28;19925;-43
2023/06/30 09:44:49;;;;;;;;;;;23.80;94.40;;;;;;5033457;28;19929;-46
2023/06/30 09:47:18;;;;;;;;;;;23.80;94.30;;;;;;5032871;28;19972;-45
2023/06/30 09:49:44;;;;;;;;;;;23.80;94.60;;;;;;5015581;28;19932;-45
2023/06/30 09:52:11;;;;;;;;;;;23.90;92.70;;;;;;5033197;28;20348;-45
2023/06/30 09:54:38;;;;;;;;;;;23.80;90.30;;;;;;5031364;28;20312;-45
2023/06/30 09:57:05;;;;;;;;;;;23.90;92.90;;;;;;5015682;28;20315;-45
2023/06/30 09:59:31;;;;;;;;;;;24.00;91.70;;;;;;5032508;28;19961;-45
2023/06/30 10:01:59;;;;;;;;;;;24.30;90.70;;;;;;5015206;28;19982;-44
2023/06/30 10:04:28;;;;;;;;;;;24.30;91.10;;;;;;5033168;28;19979;-45
2023/06/30 10:06:54;;;;;;;;;;;24.30;92.30;;;;;;5032761;28;20008;-45
2023/06/30 10:09:22;;;;;;;;;;;24.30;91.50;;;;;;5014050;28;20450;-44
2023/06/30 10:11:50;;;;;;;;;;;24.10;91.10;;;;;;5015924;28;19929;-45
2023/06/30 10:14:17;;;;;;;;;;;23.80;91.10;;;;;;5032249;28;19971;-45
2023/06/30 10:16:43;;;;;;;;;;;23.70;91.80;;;;;;5033072;28;20416;-45
2023/06/30 10:19:11;;;;;;;;;;;23.70;92.60;;;;;;5046649;28;19928;-46
2023/06/30 10:21:38;;;;;;;;;;;23.80;92.60;;;;;;5029846;28;19929;-46
2023/06/30 10:24:05;;;;;;;;;;;24.10;93.00;;;;;;5029447;28;20026;-45
2023/06/30 10:26:32;;;;;;;;;;;24.20;92.40;;;;;;5016428;28;19968;-46
2023/06/30 10:28:59;;;;;;;;;;;24.30;91.70;;;;;;5016365;28;19936;-46
2023/06/30 10:31:25;;;;;;;;;;;24.30;91.60;;;;;;5033859;28;20369;-45
2023/06/30 10:33:52;;;;;;;;;;;24.20;91.10;;;;;;5046180;28;19956;-45
2023/06/30 10:36:20;;;;;;;;;;;24.10;91.00;;;;;;5033329;28;19929;-46
2023/06/30 10:38:47;;;;;;;;;;;24.00;90.10;;;;;;5015359;28;20195;-45
2023/06/30 10:41:14;;;;;;;;;;;24.00;91.10;;;;;;5027679;28;19933;-45
2023/06/30 10:44:00;;;;;;;;;;;24.10;90.70;;;;;;5028612;28;20387;-46
2023/06/30 10:46:40;;;;;;;;;;;24.30;90.70;;;;;;5014972;28;19998;-46
2023/06/30 10:49:07;;;;;;;;;;;24.60;90.60;;;;;;5039035;28;20425;-45
2023/06/30 10:51:36;;;;;;;;;;;24.90;90.10;;;;;;5023201;28;19929;-45
2023/06/30 10:54:02;;;;;;;;;;;24.90;85.60;;;;;;5046685;28;19925;-46
2023/06/30 10:56:29;;;;;;;;;;;24.70;87.90;;;;;;5015806;28;20454;-45
2023/06/30 10:58:56;;;;;;;;;;;24.60;88.40;;;;;;5015117;28;20365;-46
2023/06/30 11:01:23;;;;;;;;;;;24.40;87.00;;;;;;5033264;28;19925;-45
2023/06/30 11:04:08;;;;;;;;;;;24.30;83.40;;;;;;5031896;28;19999;-46
2023/06/30 11:06:37;;;;;;;;;;;24.40;89.00;;;;;;5016236;28;19925;-45
2023/06/30 11:09:04;;;;;;;;;;;24.60;89.90;;;;;;5013945;28;19936;-46
2023/06/30 11:11:31;;;;;;;;;;;24.90;89.20;;;;;;5011545;28;19925;-45
2023/06/30 11:14:04;;;;;;;;;;;25.10;89.00;;;;;;5032584;28;19925;-45
2023/06/30 11:16:31;;;;;;;;;;;25.40;85.60;;;;;;5033429;28;19960;-45
2023/06/30 11:18:59;;;;;;;;;;;25.50;84.30;;;;;;5033295;28;19925;-45
2023/06/30 11:21:25;;;;;;;;;;;25.60;86.70;;;;;;5032054;28;19976;-45
2023/06/30 11:23:53;;;;;;;;;;;25.80;80.40;;;;;;5032249;28;19979;-46
2023/06/30 11:26:20;;;;;;;;;;;25.90;81.60;;;;;;5031154;28;20289;-44
2023/06/30 11:28:48;;;;;;;;;;;26.10;80.80;;;;;;5016831;28;19960;-46
2023/06/30 11:31:15;;;;;;;;;;;26.10;80.40;;;;;;5026460;28;20020;-45
2023/06/30 11:33:42;;;;;;;;;;;25.90;79.00;;;;;;5030476;28;20321;-45
2023/06/30 11:36:12;;;;;;;;;;;25.80;82.00;;;;;;5031949;28;19986;-45
2023/06/30 11:38:40;;;;;;;;;;;25.70;82.10;;;;;;5047615;28;19929;-46
2023/06/30 11:41:08;;;;;;;;;;;25.80;83.00;;;;;;5028799;28;19972;-45
2023/06/30 11:43:35;;;;;;;;;;;26.00;75.70;;;;;;5030989;28;19926;-45
2023/06/30 11:46:01;;;;;;;;;;;26.20;79.00;;;;;;5031314;28;19948;-46
2023/06/30 11:48:28;;;;;;;;;;;26.40;82.40;;;;;;5013405;28;20289;-45
2023/06/30 11:50:55;;;;;;;;;;;26.70;80.50;;;;;;5014006;28;19925;-46
2023/06/30 11:53:22;;;;;;;;;;;26.90;78.00;;;;;;5034697;28;19979;-44
2023/06/30 11:55:50;;;;;;;;;;;27.10;78.90;;;;;;5022462;28;20234;-46
2023/06/30 11:58:20;;;;;;;;;;;27.20;75.90;;;;;;5030470;28;19991;-45
2023/06/30 12:00:46;;;;;;;;;;;27.20;74.50;;;;;;5031539;28;20422;-45
2023/06/30 12:03:14;;;;;;;;;;;27.10;75.80;;;;;;5032541;28;19929;-46
2023/06/30 12:05:44;;;;;;;;;;;27.20;75.70;;;;;;5031449;28;19992;-44
2023/06/30 12:08:11;;;;;;;;;;;27.20;74.90;;;;;;5012770;28;20006;-45
2023/06/30 12:10:38;;;;;;;;;;;27.20;76.10;;;;;;5022029;28;19929;-45
2023/06/30 12:13:08;;;;;;;;;;;27.10;76.80;;;;;;5013794;28;19959;-44
2023/06/30 12:15:36;;;;;;;;;;;27.00;73.30;;;;;;5034476;28;20070;-46
2023/06/30 12:18:04;;;;;;;;;;;26.80;75.40;;;;;;5031355;28;19964;-46
2023/06/30 12:20:31;;;;;;;;;;;26.80;79.20;;;;;;5013711;28;19968;-45
2023/06/30 12:22:59;;;;;;;;;;;26.80;73.80;;;;;;5013212;28;20422;-45
2023/06/30 12:25:26;;;;;;;;;;;26.90;74.60;;;;;;5012264;28;20008;-46
2023/06/30 12:27:54;;;;;;;;;;;27.10;74.20;;;;;;5010719;28;19925;-45
2023/06/30 12:30:21;;;;;;;;;;;27.10;73.70;;;;;;5031212;28;20381;-44
2023/06/30 12:32:50;;;;;;;;;;;27.30;74.60;;;;;;5031679;28;19960;-45
2023/06/30 12:35:17;;;;;;;;;;;27.40;74.50;;;;;;5030349;28;19965;-45
2023/06/30 12:37:44;;;;;;;;;;;27.60;71.60;;;;;;5014243;28;19929;-46
2023/06/30 12:40:13;;;;;;;;;;;27.70;74.60;;;;;;5014158;28;19961;-45
2023/06/30 12:42:45;;;;;;;;;;;27.70;70.00;;;;;;5033603;28;19936;-45
2023/06/30 12:45:12;;;;;;;;;;;27.60;73.70;;;;;;5037143;28;20402;-45
2023/06/30 12:47:38;;;;;;;;;;;27.50;74.60;;;;;;5035933;28;20387;-45
2023/06/30 12:50:07;;;;;;;;;;;27.50;73.20;;;;;;5016171;28;19946;-46
2023/06/30 12:52:34;;;;;;;;;;;27.40;73.90;;;;;;5035863;28;19933;-45
2023/06/30 12:55:01;;;;;;;;;;;27.40;73.20;;;;;;5052947;28;20378;-46
2023/06/30 12:57:28;;;;;;;;;;;27.40;70.70;;;;;;5019698;28;20358;-45
2023/06/30 12:59:55;;;;;;;;;;;27.50;73.40;;;;;;5037644;28;20027;-46
2023/06/30 13:02:21;;;;;;;;;;;27.50;73.50;;;;;;5019924;28;19929;-43
2023/06/30 13:04:48;;;;;;;;;;;27.50;71.80;;;;;;5038126;28;19925;-45
2023/06/30 13:07:16;;;;;;;;;;;27.40;71.90;;;;;;5032781;28;19929;-45
2023/06/30 13:09:47;;;;;;;;;;;27.40;73.00;;;;;;5037071;28;19960;-46
2023/06/30 13:12:14;;;;;;;;;;;27.30;71.40;;;;;;5019960;28;20424;-46
2023/06/30 13:14:40;;;;;;;;;;;27.10;72.10;;;;;;5037152;28;19972;-44
2023/06/30 13:17:07;;;;;;;;;;;27.00;71.80;;;;;;5019884;28;19925;-47
2023/06/30 13:19:34;;;;;;;;;;;27.10;71.90;;;;;;5018310;28;19925;-45
2023/06/30 13:22:01;;;;;;;;;;;27.10;72.40;;;;;;5034282;28;19925;-46
2023/06/30 13:24:29;;;;;;;;;;;27.10;71.80;;;;;;5019779;28;19929;-47
2023/06/30 13:26:55;;;;;;;;;;;27.20;72.30;;;;;;5019376;28;20412;-46
2023/06/30 13:29:22;;;;;;;;;;;27.10;73.90;;;;;;5025334;28;19960;-45
2023/06/30 13:31:49;;;;;;;;;;;27.00;72.30;;;;;;5034054;28;19936;-47
2023/06/30 13:34:16;;;;;;;;;;;26.90;73.80;;;;;;5013827;28;20429;-46
2023/06/30 13:36:42;;;;;;;;;;;27.00;70.90;;;;;;5036883;28;19932;-45
2023/06/30 13:39:09;;;;;;;;;;;27.20;73.00;;;;;;5035758;28;19926;-45
2023/06/30 13:41:37;;;;;;;;;;;27.40;74.00;;;;;;5033074;28;19972;-45
2023/06/30 13:44:04;;;;;;;;;;;27.60;73.10;;;;;;5048181;28;19991;-46
2023/06/30 13:46:31;;;;;;;;;;;27.70;70.40;;;;;;5044772;28;19983;-46
2023/06/30 13:48:57;;;;;;;;;;;27.80;72.30;;;;;;5034914;28;19979;-45
2023/06/30 13:51:24;;;;;;;;;;;27.80;70.80;;;;;;5017470;28;20372;-44
2023/06/30 13:53:51;;;;;;;;;;;27.70;71.20;;;;;;5033676;28;19929;-44
2023/06/30 13:56:17;;;;;;;;;;;27.80;72.50;;;;;;5010847;28;19933;-44
2023/06/30 13:58:45;;;;;;;;;;;27.90;70.30;;;;;;5027579;28;19932;-45
2023/06/30 14:01:12;;;;;;;;;;;28.00;71.20;;;;;;5030317;28;19972;-43
2023/06/30 14:03:40;;;;;;;;;;;27.90;70.40;;;;;;5023094;28;20005;-46
2023/06/30 14:06:06;;;;;;;;;;;27.90;71.50;;;;;;5001447;28;19939;-45
2023/06/30 14:08:34;;;;;;;;;;;28.00;69.80;;;;;;5032840;28;19933;-44
2023/06/30 14:11:00;;;;;;;;;;;28.00;66.90;;;;;;5033598;28;20023;-44
2023/06/30 14:13:27;;;;;;;;;;;28.00;69.20;;;;;;5013541;28;19972;-44
2023/06/30 14:15:55;;;;;;;;;;;28.00;70.70;;;;;;5040341;28;19932;-45